Velarde, New Mexico
Current Conditions -  °F | °C
As of 8:35 PM on Saturday 22 Nov 2014 (Local Time) from KLAM Reporting Station
Scattered Clouds Scattered Clouds  
Wind Chill: 36°   Ceiling: Unl
Heat Index: 40°   Visibility: 10mi
Dew Point: 16°   Wind: 6mph
Humidity: 38%   Direction: 130°SE
Pressure: 29.91"   Gusts: NA
Location:  36.16°N, 105.97°W
Report Text: KLAM 230335Z AUTO 13005KT 10SM SCT095 05/M09 A2991 RMK AO2 T00461088
Loading
Personal Weather Stations






























Interactive Weather Map New forecast layout! Learn more

10-Day Weather Forecast

Advertisements
Track Severe Weather on mobile